createdAt,value
2019-05-22T00:00:25.715Z,15.70
2019-05-22T00:02:55.925Z,15.80
2019-05-22T00:05:34.239Z,15.70
2019-05-22T00:08:05.369Z,15.60
2019-05-22T00:10:35.096Z,15.50
2019-05-22T00:13:06.979Z,15.50
2019-05-22T00:15:38.742Z,15.40
2019-05-22T00:18:09.894Z,15.50
2019-05-22T00:20:41.688Z,15.50
2019-05-22T00:23:12.978Z,15.50
2019-05-22T00:25:44.847Z,15.40
2019-05-22T00:28:15.575Z,15.40
2019-05-22T00:30:47.963Z,15.50
2019-05-22T00:33:18.318Z,15.50
2019-05-22T00:35:47.959Z,15.50
2019-05-22T00:38:18.734Z,15.40
2019-05-22T00:40:52.195Z,15.40
2019-05-22T00:43:30.223Z,15.40
2019-05-22T00:46:05.382Z,15.30
2019-05-22T00:48:36.021Z,15.20
2019-05-22T00:51:10.445Z,15.20
2019-05-22T00:53:59.718Z,15.20
2019-05-22T00:56:31.680Z,15.20
2019-05-22T00:59:03.011Z,15.20
2019-05-22T01:01:38.905Z,15.20
2019-05-22T01:04:10.184Z,15.20
2019-05-22T01:06:39.893Z,15.10
2019-05-22T01:09:11.187Z,15.10
2019-05-22T01:11:45.272Z,15.00
2019-05-22T01:14:17.944Z,15.00
2019-05-22T01:16:49.222Z,14.90
2019-05-22T01:19:19.512Z,14.90
2019-05-22T01:21:50.746Z,15.00
2019-05-22T01:24:20.371Z,15.00
2019-05-22T01:26:51.645Z,15.00
2019-05-22T01:29:21.774Z,14.90
2019-05-22T01:31:53.422Z,14.90
2019-05-22T01:34:24.880Z,14.90
2019-05-22T01:36:59.447Z,14.90
2019-05-22T01:39:33.689Z,14.90
2019-05-22T01:42:05.058Z,14.80
2019-05-22T01:44:36.368Z,14.80
2019-05-22T01:47:10.052Z,14.80
2019-05-22T01:49:44.580Z,14.80
2019-05-22T01:52:15.772Z,14.80
2019-05-22T01:54:46.730Z,14.70
2019-05-22T01:57:17.930Z,14.60
2019-05-22T01:59:48.038Z,14.50
2019-05-22T02:02:19.136Z,14.50
2019-05-22T02:04:48.712Z,14.50
2019-05-22T02:07:20.890Z,14.60
2019-05-22T02:09:52.413Z,14.70
2019-05-22T02:12:29.015Z,14.70
2019-05-22T02:14:58.991Z,14.70
2019-05-22T02:17:31.817Z,14.60
2019-05-22T02:20:02.375Z,14.70
2019-05-22T02:22:32.296Z,14.80
2019-05-22T02:25:02.873Z,14.70
2019-05-22T02:27:34.449Z,14.60
2019-05-22T02:30:05.663Z,14.70
2019-05-22T02:32:37.929Z,14.90
2019-05-22T02:35:09.314Z,14.80
2019-05-22T02:37:41.149Z,14.70
2019-05-22T02:40:26.164Z,14.60
2019-05-22T02:42:56.494Z,14.70
2019-05-22T02:45:26.687Z,14.70
2019-05-22T02:47:57.291Z,14.70
2019-05-22T02:50:29.735Z,14.80
2019-05-22T02:53:01.810Z,14.90
2019-05-22T02:55:31.595Z,14.90
2019-05-22T02:58:03.469Z,15.00
2019-05-22T03:00:53.536Z,14.90
2019-05-22T03:03:23.362Z,14.80
2019-05-22T03:05:54.944Z,14.80
2019-05-22T03:08:44.336Z,14.80
2019-05-22T03:11:15.143Z,14.70
2019-05-22T03:14:01.007Z,14.60
2019-05-22T03:16:39.524Z,14.60
2019-05-22T03:19:09.549Z,14.70
2019-05-22T03:21:39.463Z,14.80
2019-05-22T03:24:09.122Z,14.90
2019-05-22T03:26:47.043Z,15.00
2019-05-22T03:29:18.799Z,15.00
2019-05-22T03:31:48.641Z,15.00
2019-05-22T03:34:18.454Z,14.90
2019-05-22T03:36:48.272Z,15.10
2019-05-22T03:39:18.285Z,15.10
2019-05-22T03:41:48.489Z,15.20
2019-05-22T03:44:19.788Z,15.20
2019-05-22T03:46:49.895Z,14.90
2019-05-22T03:49:29.742Z,14.80
2019-05-22T03:51:55.872Z,14.70
2019-05-22T03:54:25.547Z,14.80
2019-05-22T03:56:55.629Z,14.70
2019-05-22T03:59:25.732Z,14.90
2019-05-22T04:01:58.196Z,14.90
2019-05-22T04:04:36.636Z,15.00
2019-05-22T04:07:08.192Z,15.00
2019-05-22T04:09:40.605Z,15.00
2019-05-22T04:12:10.825Z,15.00
2019-05-22T04:14:40.805Z,15.10
2019-05-22T04:17:13.071Z,14.90
2019-05-22T04:19:50.544Z,14.90
2019-05-22T04:22:17.068Z,14.90
2019-05-22T04:24:46.928Z,15.00
2019-05-22T04:27:17.871Z,15.10
2019-05-22T04:29:47.645Z,15.00
2019-05-22T04:32:18.961Z,15.00
2019-05-22T04:34:48.692Z,15.10
2019-05-22T04:37:20.000Z,15.00
2019-05-22T04:39:51.838Z,15.20
2019-05-22T04:42:23.667Z,15.10
2019-05-22T04:45:12.799Z,15.20
2019-05-22T04:48:01.476Z,15.20
2019-05-22T04:50:31.205Z,15.20
2019-05-22T04:53:01.361Z,15.00
2019-05-22T04:55:33.396Z,14.90
2019-05-22T04:58:06.838Z,15.00
2019-05-22T05:00:37.031Z,15.00
2019-05-22T05:03:08.567Z,15.00
2019-05-22T05:05:45.991Z,15.10
2019-05-22T05:08:16.101Z,15.10
2019-05-22T05:10:48.367Z,15.20
2019-05-22T05:13:18.513Z,15.10
2019-05-22T05:15:48.133Z,15.10
2019-05-22T05:18:18.148Z,15.10
2019-05-22T05:20:47.969Z,15.10
2019-05-22T05:23:17.687Z,15.10
2019-05-22T05:25:47.381Z,15.20
2019-05-22T05:28:17.391Z,15.30
2019-05-22T05:30:47.273Z,15.40
2019-05-22T05:33:17.423Z,15.40
2019-05-22T05:35:47.917Z,15.30
2019-05-22T05:38:17.851Z,15.50
2019-05-22T05:40:47.631Z,15.70
2019-05-22T05:43:17.439Z,15.60
2019-05-22T05:45:49.329Z,15.60
2019-05-22T05:48:23.950Z,15.60
2019-05-22T05:51:08.737Z,15.50
2019-05-22T05:53:59.892Z,15.50
2019-05-22T05:56:30.484Z,15.50
2019-05-22T05:59:02.739Z,15.70
2019-05-22T06:01:34.010Z,15.90
2019-05-22T06:04:04.648Z,15.80
2019-05-22T06:06:40.381Z,15.90
2019-05-22T06:09:13.692Z,15.80
2019-05-22T06:11:52.993Z,15.90
2019-05-22T06:14:30.166Z,15.90
2019-05-22T06:17:40.449Z,15.80
2019-05-22T06:20:13.645Z,16.00
2019-05-22T06:22:45.607Z,16.30
2019-05-22T06:25:17.052Z,16.40
2019-05-22T06:27:51.487Z,16.30
2019-05-22T06:30:25.662Z,16.60
2019-05-22T06:33:13.726Z,16.80
2019-05-22T06:35:46.374Z,16.80
2019-05-22T06:38:28.197Z,16.90
2019-05-22T06:40:58.732Z,17.00
2019-05-22T06:43:31.558Z,16.80
2019-05-22T06:46:03.012Z,16.90
2019-05-22T06:48:32.774Z,17.20
2019-05-22T06:51:02.485Z,17.40
2019-05-22T06:53:32.113Z,17.40
2019-05-22T06:56:02.634Z,17.70
2019-05-22T06:58:32.376Z,17.80
2019-05-22T07:01:02.662Z,17.60
2019-05-22T07:03:32.931Z,17.30
2019-05-22T07:06:03.984Z,17.50
2019-05-22T07:08:33.777Z,17.40
2019-05-22T07:11:04.207Z,17.50
2019-05-22T07:13:34.291Z,17.40
2019-05-22T07:16:05.014Z,17.90
2019-05-22T07:18:34.643Z,17.90
2019-05-22T07:21:04.381Z,18.10
2019-05-22T07:23:36.676Z,18.40
2019-05-22T07:26:06.333Z,18.70
2019-05-22T07:28:36.695Z,18.80
2019-05-22T07:31:08.187Z,18.90
2019-05-22T07:33:38.547Z,19.00
2019-05-22T07:36:12.218Z,18.80
2019-05-22T07:38:40.405Z,18.80
2019-05-22T07:41:10.410Z,19.10
2019-05-22T07:43:41.350Z,19.50
2019-05-22T07:46:11.728Z,19.80
2019-05-22T07:48:41.991Z,19.30
2019-05-22T07:51:12.746Z,19.10
2019-05-22T07:53:42.593Z,19.00
2019-05-22T07:56:14.169Z,19.30
2019-05-22T07:58:44.647Z,19.90
2019-05-22T08:01:16.077Z,20.10
2019-05-22T08:03:47.703Z,20.50
2019-05-22T08:06:18.215Z,20.40
2019-05-22T08:08:48.348Z,20.50
2019-05-22T08:11:19.945Z,20.60
2019-05-22T08:13:50.440Z,20.80
2019-05-22T08:16:21.824Z,19.70
2019-05-22T08:18:52.088Z,19.60
2019-05-22T08:21:23.602Z,19.90
2019-05-22T08:23:54.890Z,20.30
2019-05-22T08:26:24.855Z,20.60
2019-05-22T08:28:55.569Z,20.40
2019-05-22T08:31:25.779Z,20.20
2019-05-22T08:33:56.461Z,20.50
2019-05-22T08:36:26.433Z,20.70
2019-05-22T08:38:56.379Z,20.80
2019-05-22T08:41:29.025Z,21.40
2019-05-22T08:44:15.426Z,20.80
2019-05-22T08:46:31.929Z,20.80
2019-05-22T08:49:02.223Z,20.60
2019-05-22T08:51:31.847Z,20.40
2019-05-22T08:54:05.658Z,20.80
2019-05-22T08:56:38.508Z,21.20
2019-05-22T08:59:18.858Z,21.20
2019-05-22T09:01:40.363Z,20.80
2019-05-22T09:04:10.234Z,20.50
2019-05-22T09:06:40.225Z,21.00
2019-05-22T09:09:09.847Z,21.50
2019-05-22T09:11:39.556Z,21.70
2019-05-22T09:14:09.418Z,21.50
2019-05-22T09:16:39.933Z,21.20
2019-05-22T09:19:10.009Z,21.20
2019-05-22T09:21:40.677Z,21.20
2019-05-22T09:24:14.659Z,21.20
2019-05-22T09:26:45.108Z,21.20
2019-05-22T09:29:15.117Z,21.20
2019-05-22T09:31:45.094Z,21.50
2019-05-22T09:34:15.202Z,21.00
2019-05-22T09:36:45.034Z,20.80
2019-05-22T09:39:15.893Z,21.40
2019-05-22T09:41:45.507Z,21.50
2019-05-22T09:44:15.479Z,21.70
2019-05-22T09:46:45.466Z,21.90
2019-05-22T09:49:15.286Z,21.40
2019-05-22T09:51:45.158Z,21.50
2019-05-22T09:54:14.970Z,21.70
2019-05-22T09:56:44.571Z,21.70
2019-05-22T09:59:14.206Z,21.60
2019-05-22T10:01:43.744Z,21.90
2019-05-22T10:04:13.729Z,22.30
2019-05-22T10:06:43.554Z,22.80
2019-05-22T10:09:13.172Z,22.90
2019-05-22T10:11:42.792Z,23.10
2019-05-22T10:14:13.413Z,23.00
2019-05-22T10:16:43.671Z,23.70
2019-05-22T10:19:14.486Z,23.40
2019-05-22T10:21:44.184Z,22.80
2019-05-22T10:24:14.164Z,22.70
2019-05-22T10:26:43.767Z,23.00
2019-05-22T10:29:14.073Z,22.80
2019-05-22T10:31:43.625Z,22.70
2019-05-22T10:34:13.514Z,22.10
2019-05-22T10:36:43.380Z,22.00
2019-05-22T10:39:13.094Z,22.60
2019-05-22T10:41:42.823Z,22.70
2019-05-22T10:44:12.632Z,23.10
2019-05-22T10:46:42.418Z,22.70
2019-05-22T10:49:12.247Z,22.80
2019-05-22T10:51:41.795Z,23.30
2019-05-22T10:54:11.504Z,23.50
2019-05-22T10:56:41.071Z,23.00
2019-05-22T10:59:10.682Z,23.20
2019-05-22T11:01:40.389Z,22.70
2019-05-22T11:04:10.739Z,22.70
2019-05-22T11:06:41.301Z,22.90
2019-05-22T11:09:12.077Z,22.90
2019-05-22T11:11:42.852Z,22.90
2019-05-22T11:14:13.526Z,23.00
2019-05-22T11:16:43.157Z,23.40
2019-05-22T11:19:12.763Z,23.10
2019-05-22T11:21:42.784Z,23.80
2019-05-22T11:24:12.693Z,24.40
2019-05-22T11:26:43.996Z,24.40
2019-05-22T11:29:14.198Z,23.40
2019-05-22T11:31:44.500Z,23.50
2019-05-22T11:34:15.174Z,23.60
2019-05-22T11:36:44.978Z,23.80
2019-05-22T11:39:19.241Z,23.90
2019-05-22T11:41:48.909Z,24.00
2019-05-22T11:44:19.197Z,23.90
2019-05-22T11:46:49.627Z,23.90
2019-05-22T11:49:19.254Z,23.70
2019-05-22T11:51:50.290Z,23.00
2019-05-22T11:54:20.005Z,23.10
2019-05-22T11:56:51.231Z,23.40
2019-05-22T11:59:23.040Z,23.90
2019-05-22T12:01:53.309Z,24.30
2019-05-22T12:04:23.565Z,24.50
2019-05-22T12:06:54.113Z,24.80
2019-05-22T12:09:23.944Z,24.90
2019-05-22T12:11:54.299Z,25.20
2019-05-22T12:14:24.334Z,24.70
2019-05-22T12:16:54.926Z,24.20
2019-05-22T12:19:25.794Z,23.70
2019-05-22T12:21:55.996Z,23.40
2019-05-22T12:24:31.314Z,23.10
2019-05-22T12:26:57.230Z,23.50
2019-05-22T12:29:28.011Z,23.50
2019-05-22T12:31:59.246Z,23.40
2019-05-22T12:34:29.267Z,24.20
2019-05-22T12:36:59.173Z,24.20
2019-05-22T12:39:29.853Z,24.60
2019-05-22T12:42:00.735Z,25.10
2019-05-22T12:44:30.448Z,25.40
2019-05-22T12:47:00.146Z,25.20
2019-05-22T12:49:30.569Z,24.90
2019-05-22T12:52:01.315Z,25.30
2019-05-22T12:54:45.318Z,25.30
2019-05-22T12:57:02.910Z,25.30
2019-05-22T12:59:32.526Z,25.00
2019-05-22T13:02:03.221Z,25.40
2019-05-22T13:04:34.771Z,26.00
2019-05-22T13:07:05.885Z,26.20
2019-05-22T13:09:36.486Z,26.00
2019-05-22T13:12:08.507Z,25.50
2019-05-22T13:14:39.833Z,25.50
2019-05-22T13:17:12.787Z,25.90
2019-05-22T13:19:43.772Z,25.50
2019-05-22T13:22:16.906Z,25.30
2019-05-22T13:24:47.435Z,24.60
2019-05-22T13:27:20.028Z,24.20
2019-05-22T13:29:50.814Z,24.10
2019-05-22T13:32:22.266Z,24.10
2019-05-22T13:34:54.155Z,23.70
2019-05-22T13:37:23.108Z,23.60
2019-05-22T13:39:53.054Z,23.70
2019-05-22T13:42:23.285Z,23.90
2019-05-22T13:44:53.583Z,24.10
2019-05-22T13:47:23.460Z,24.20
2019-05-22T13:49:53.745Z,24.00
2019-05-22T13:52:23.691Z,24.00
2019-05-22T13:54:53.780Z,24.30
2019-05-22T13:57:24.387Z,24.90
2019-05-22T13:59:54.173Z,25.10
2019-05-22T14:02:27.141Z,25.50
2019-05-22T14:04:55.502Z,26.20
2019-05-22T14:07:25.617Z,25.60
2019-05-22T14:09:56.031Z,25.70
2019-05-22T14:12:25.953Z,26.30
2019-05-22T14:14:55.666Z,27.40
2019-05-22T14:17:25.296Z,27.60
2019-05-22T14:19:55.174Z,28.00
2019-05-22T14:22:25.102Z,28.00
2019-05-22T14:24:54.896Z,27.90
2019-05-22T14:27:24.962Z,27.30
2019-05-22T14:29:54.600Z,26.70
2019-05-22T14:32:30.053Z,26.20
2019-05-22T14:34:55.508Z,25.70
2019-05-22T14:37:25.209Z,25.50
2019-05-22T14:39:54.924Z,25.30
2019-05-22T14:42:25.519Z,24.90
2019-05-22T14:44:55.390Z,24.70
2019-05-22T14:47:25.224Z,24.70
2019-05-22T14:49:55.145Z,25.00
2019-05-22T14:52:25.290Z,25.10
2019-05-22T14:54:54.996Z,24.60
2019-05-22T14:57:25.695Z,24.40
2019-05-22T14:59:55.390Z,24.40
2019-05-22T15:02:25.412Z,24.70
2019-05-22T15:04:55.710Z,24.20
2019-05-22T15:07:25.588Z,24.30
2019-05-22T15:09:55.230Z,24.50
2019-05-22T15:12:25.349Z,24.30
2019-05-22T15:14:55.136Z,24.60
2019-05-22T15:17:32.713Z,25.00
2019-05-22T15:19:57.352Z,25.40
2019-05-22T15:22:28.290Z,25.60
2019-05-22T15:24:58.270Z,26.10
2019-05-22T15:27:28.237Z,26.20
2019-05-22T15:29:58.138Z,26.30
2019-05-22T15:32:28.336Z,26.00
2019-05-22T15:34:59.114Z,25.50
2019-05-22T15:37:29.689Z,25.20
2019-05-22T15:39:59.383Z,25.00
2019-05-22T15:42:41.150Z,25.00
2019-05-22T15:45:17.701Z,24.90
2019-05-22T15:47:55.523Z,24.80
2019-05-22T15:50:25.684Z,24.90
2019-05-22T15:52:59.645Z,25.10
2019-05-22T15:55:31.399Z,24.90
2019-05-22T15:58:01.966Z,24.90
2019-05-22T16:00:34.843Z,24.90
2019-05-22T16:03:21.217Z,24.70
2019-05-22T16:05:54.211Z,24.90
2019-05-22T16:08:24.422Z,25.10
2019-05-22T16:10:59.656Z,25.20
2019-05-22T16:13:30.142Z,25.40
2019-05-22T16:16:02.331Z,25.30
2019-05-22T16:18:36.573Z,24.80
2019-05-22T16:21:07.982Z,24.60
2019-05-22T16:23:38.496Z,24.60
2019-05-22T16:26:10.084Z,24.50
2019-05-22T16:28:41.090Z,24.50
2019-05-22T16:31:12.645Z,24.40
2019-05-22T16:33:44.076Z,24.40
2019-05-22T16:36:14.332Z,24.40
2019-05-22T16:38:46.492Z,24.20
2019-05-22T16:41:17.293Z,24.10
2019-05-22T16:43:50.034Z,23.90
2019-05-22T16:46:20.622Z,23.70
2019-05-22T16:48:50.597Z,23.50
2019-05-22T16:51:21.871Z,23.30
2019-05-22T16:53:54.700Z,23.40
2019-05-22T16:56:25.563Z,23.40
2019-05-22T16:58:56.238Z,23.50
2019-05-22T17:01:27.333Z,23.50
2019-05-22T17:04:00.091Z,23.50
2019-05-22T17:06:30.811Z,23.40
2019-05-22T17:09:01.645Z,23.20
2019-05-22T17:11:31.941Z,23.20
2019-05-22T17:14:04.712Z,23.10
2019-05-22T17:16:39.127Z,23.00
2019-05-22T17:19:25.546Z,22.90
2019-05-22T17:21:41.423Z,22.80
2019-05-22T17:24:13.890Z,22.80
2019-05-22T17:26:44.958Z,22.80
2019-05-22T17:29:15.756Z,22.90
2019-05-22T17:31:45.743Z,22.90
2019-05-22T17:34:34.776Z,22.90
2019-05-22T17:37:09.608Z,22.80
2019-05-22T17:39:41.885Z,22.90
2019-05-22T17:42:17.507Z,22.90
2019-05-22T17:44:49.787Z,22.90
2019-05-22T17:47:21.988Z,22.80
2019-05-22T17:49:53.413Z,22.70
2019-05-22T17:52:26.226Z,22.70
2019-05-22T17:54:56.004Z,22.60
2019-05-22T17:57:26.271Z,22.50
2019-05-22T17:59:57.756Z,22.50
2019-05-22T18:02:29.083Z,22.40
2019-05-22T18:04:58.904Z,22.40
2019-05-22T18:07:28.827Z,22.40
2019-05-22T18:09:58.459Z,22.40
2019-05-22T18:12:28.623Z,22.30
2019-05-22T18:14:58.706Z,22.20
2019-05-22T18:17:28.676Z,22.00
2019-05-22T18:19:58.540Z,21.50
2019-05-22T18:22:28.316Z,20.90
2019-05-22T18:24:58.011Z,20.30
2019-05-22T18:27:27.734Z,19.80
2019-05-22T18:29:57.533Z,19.40
2019-05-22T18:32:27.061Z,19.10
2019-05-22T18:34:56.692Z,19.00
2019-05-22T18:37:26.392Z,19.00
2019-05-22T18:39:55.995Z,19.00
2019-05-22T18:42:25.893Z,19.10
2019-05-22T18:44:56.349Z,19.10
2019-05-22T18:47:25.990Z,19.00
2019-05-22T18:49:55.602Z,19.00
2019-05-22T18:52:40.003Z,19.00
2019-05-22T18:54:56.769Z,18.90
2019-05-22T18:57:26.377Z,18.90
2019-05-22T19:00:02.348Z,18.90
2019-05-22T19:02:27.819Z,19.00
2019-05-22T19:04:57.454Z,19.00
2019-05-22T19:07:27.346Z,19.00
2019-05-22T19:09:56.954Z,19.00
2019-05-22T19:12:26.684Z,19.10
2019-05-22T19:14:56.325Z,19.10
2019-05-22T19:17:26.185Z,19.20
2019-05-22T19:19:56.579Z,19.20
2019-05-22T19:22:26.691Z,19.20
2019-05-22T19:24:56.407Z,19.10
2019-05-22T19:27:25.974Z,19.10
2019-05-22T19:29:55.623Z,19.20
2019-05-22T19:32:25.497Z,19.10
2019-05-22T19:34:55.456Z,19.20
2019-05-22T19:37:25.346Z,19.20
2019-05-22T19:39:55.045Z,19.20
2019-05-22T19:42:24.693Z,19.20
2019-05-22T19:44:54.552Z,19.10
2019-05-22T19:47:25.155Z,19.20
2019-05-22T19:49:54.847Z,19.10
2019-05-22T19:52:38.994Z,19.10
2019-05-22T19:54:57.504Z,19.10
2019-05-22T19:57:27.966Z,19.00
2019-05-22T19:59:59.014Z,19.00
2019-05-22T20:02:28.701Z,18.90
2019-05-22T20:04:58.328Z,18.80
2019-05-22T20:07:28.804Z,18.70
2019-05-22T20:10:00.219Z,18.70
2019-05-22T20:12:30.201Z,18.60
2019-05-22T20:15:04.218Z,18.50
2019-05-22T20:17:34.665Z,18.50
2019-05-22T20:20:10.201Z,18.50
2019-05-22T20:22:41.106Z,18.50
2019-05-22T20:25:12.184Z,18.40
2019-05-22T20:27:42.463Z,18.40
2019-05-22T20:30:15.394Z,18.30
2019-05-22T20:32:45.271Z,18.30
2019-05-22T20:35:17.750Z,18.30
2019-05-22T20:37:51.525Z,18.30
2019-05-22T20:40:22.234Z,18.30
2019-05-22T20:42:52.559Z,18.30
2019-05-22T20:45:24.504Z,18.30
2019-05-22T20:48:06.630Z,18.40
2019-05-22T20:50:37.418Z,18.30
2019-05-22T20:53:10.033Z,18.30
2019-05-22T20:55:42.707Z,18.20
2019-05-22T20:58:17.116Z,18.30
2019-05-22T21:00:49.967Z,18.30
2019-05-22T21:03:21.920Z,18.20
2019-05-22T21:05:54.392Z,18.20
2019-05-22T21:08:25.512Z,18.20
2019-05-22T21:10:56.472Z,18.20
2019-05-22T21:13:26.517Z,18.10
2019-05-22T21:15:57.446Z,18.10
2019-05-22T21:18:31.693Z,18.10
2019-05-22T21:21:02.676Z,18.00
2019-05-22T21:23:32.374Z,18.00
2019-05-22T21:26:03.494Z,18.10
2019-05-22T21:28:33.418Z,18.00
2019-05-22T21:31:04.225Z,18.00
2019-05-22T21:33:36.152Z,17.90
2019-05-22T21:36:06.677Z,17.90
2019-05-22T21:38:36.332Z,17.80
2019-05-22T21:41:10.089Z,17.70
2019-05-22T21:43:43.408Z,17.70
2019-05-22T21:46:13.864Z,17.60
2019-05-22T21:48:45.113Z,17.60
2019-05-22T21:51:17.117Z,17.60
2019-05-22T21:53:45.972Z,17.50
2019-05-22T21:56:19.165Z,17.50
2019-05-22T21:58:53.101Z,17.50
2019-05-22T22:01:27.425Z,17.50
2019-05-22T22:04:00.469Z,17.40
2019-05-22T22:06:33.188Z,17.50
2019-05-22T22:09:01.554Z,17.50
2019-05-22T22:11:33.426Z,17.50
2019-05-22T22:14:05.042Z,17.50
2019-05-22T22:16:35.015Z,17.40
2019-05-22T22:19:04.762Z,17.40
2019-05-22T22:21:34.550Z,17.30
2019-05-22T22:24:05.995Z,17.30
2019-05-22T22:26:37.566Z,17.30
2019-05-22T22:29:08.013Z,17.30
2019-05-22T22:31:38.381Z,17.40
2019-05-22T22:34:13.885Z,17.40
2019-05-22T22:36:43.711Z,17.40
2019-05-22T22:39:15.195Z,17.50
2019-05-22T22:41:46.290Z,17.50
2019-05-22T22:44:16.636Z,17.50
2019-05-22T22:46:56.292Z,17.50
2019-05-22T22:49:28.052Z,17.40
2019-05-22T22:51:57.780Z,17.40
2019-05-22T22:54:28.187Z,17.40
2019-05-22T22:57:01.125Z,17.30
2019-05-22T22:59:32.255Z,17.30
2019-05-22T23:02:03.785Z,17.40
2019-05-22T23:04:34.464Z,17.40
2019-05-22T23:07:05.962Z,17.40
2019-05-22T23:09:37.111Z,17.40
2019-05-22T23:12:07.921Z,17.40
2019-05-22T23:14:40.759Z,17.30
2019-05-22T23:17:11.366Z,17.40
2019-05-22T23:19:41.716Z,17.40
2019-05-22T23:22:20.695Z,17.40
2019-05-22T23:24:53.347Z,17.30
2019-05-22T23:27:24.016Z,17.30
2019-05-22T23:29:54.291Z,17.20
2019-05-22T23:32:24.430Z,17.20
2019-05-22T23:34:55.502Z,17.20
2019-05-22T23:37:26.519Z,17.20
2019-05-22T23:39:56.189Z,17.20
2019-05-22T23:42:30.210Z,17.20
2019-05-22T23:45:02.806Z,17.20
2019-05-22T23:47:33.166Z,17.10
2019-05-22T23:50:03.866Z,17.10
2019-05-22T23:52:33.790Z,17.00
2019-05-22T23:55:03.883Z,17.00
2019-05-22T23:57:33.769Z,17.00
